sensor_id;sensor_type;location;lat;lon;timestamp;P1;durP1;ratioP1;P2;durP2;ratioP2
4885;SDS011;2457;51.788;6.136;2024-01-15T00:01:07;12.77;;;5.10;;
4885;SDS011;2457;51.788;6.136;2024-01-15T00:03:34;9.67;;;4.93;;
4885;SDS011;2457;51.788;6.136;2024-01-15T00:06:02;9.33;;;4.30;;
4885;SDS011;2457;51.788;6.136;2024-01-15T00:08:30;9.63;;;4.00;;
4885;SDS011;2457;51.788;6.136;2024-01-15T00:10:57;8.70;;;4.23;;
4885;SDS011;2457;51.788;6.136;2024-01-15T00:13:24;9.10;;;4.00;;
4885;SDS011;2457;51.788;6.136;2024-01-15T00:15:52;9.13;;;3.90;;
4885;SDS011;2457;51.788;6.136;2024-01-15T00:18:19;6.20;;;3.10;;
4885;SDS011;2457;51.788;6.136;2024-01-15T00:20:46;8.40;;;3.87;;
4885;SDS011;2457;51.788;6.136;2024-01-15T00:23:13;7.90;;;4.30;;
4885;SDS011;2457;51.788;6.136;2024-01-15T00:25:41;8.80;;;3.57;;
4885;SDS011;2457;51.788;6.136;2024-01-15T00:28:08;8.40;;;3.80;;
4885;SDS011;2457;51.788;6.136;2024-01-15T00:30:35;7.90;;;3.40;;
4885;SDS011;2457;51.788;6.136;2024-01-15T00:33:03;6.80;;;3.67;;
4885;SDS011;2457;51.788;6.136;2024-01-15T00:35:30;9.60;;;3.57;;
4885;SDS011;2457;51.788;6.136;2024-01-15T00:37:58;7.83;;;3.03;;
4885;SDS011;2457;51.788;6.136;2024-01-15T00:40:25;10.97;;;3.90;;
4885;SDS011;2457;51.788;6.136;2024-01-15T00:42:52;6.97;;;3.47;;
4885;SDS011;2457;51.788;6.136;2024-01-15T00:45:20;7.77;;;3.27;;
4885;SDS011;2457;51.788;6.136;2024-01-15T00:47:47;8.20;;;2.90;;
4885;SDS011;2457;51.788;6.136;2024-01-15T00:50:14;8.03;;;3.53;;
4885;SDS011;2457;51.788;6.136;2024-01-15T00:52:41;8.10;;;3.50;;
4885;SDS011;2457;51.788;6.136;2024-01-15T00:55:09;7.53;;;3.50;;
4885;SDS011;2457;51.788;6.136;2024-01-15T00:57:37;8.03;;;3.77;;
4885;SDS011;2457;51.788;6.136;2024-01-15T01:00:04;5.30;;;2.80;;
4885;SDS011;2457;51.788;6.136;2024-01-15T01:02:32;7.70;;;2.53;;
4885;SDS011;2457;51.788;6.136;2024-01-15T01:04:59;5.33;;;2.43;;
4885;SDS011;2457;51.788;6.136;2024-01-15T01:07:27;6.50;;;2.43;;
4885;SDS011;2457;51.788;6.136;2024-01-15T01:09:54;5.07;;;1.90;;
4885;SDS011;2457;51.788;6.136;2024-01-15T01:12:22;8.37;;;1.97;;
4885;SDS011;2457;51.788;6.136;2024-01-15T01:14:49;6.97;;;2.30;;
4885;SDS011;2457;51.788;6.136;2024-01-15T01:17:16;5.00;;;2.10;;
4885;SDS011;2457;51.788;6.136;2024-01-15T01:19:44;6.47;;;2.00;;
4885;SDS011;2457;51.788;6.136;2024-01-15T01:22:11;5.80;;;1.80;;
4885;SDS011;2457;51.788;6.136;2024-01-15T01:24:38;4.00;;;1.90;;
4885;SDS011;2457;51.788;6.136;2024-01-15T01:27:05;6.00;;;1.70;;
4885;SDS011;2457;51.788;6.136;2024-01-15T01:29:33;5.17;;;1.57;;
4885;SDS011;2457;51.788;6.136;2024-01-15T01:32:00;4.70;;;1.90;;
4885;SDS011;2457;51.788;6.136;2024-01-15T01:34:27;5.37;;;1.90;;
4885;SDS011;2457;51.788;6.136;2024-01-15T01:36:56;3.53;;;1.30;;
4885;SDS011;2457;51.788;6.136;2024-01-15T01:39:23;3.30;;;1.40;;
4885;SDS011;2457;51.788;6.136;2024-01-15T01:41:51;3.80;;;1.87;;
4885;SDS011;2457;51.788;6.136;2024-01-15T01:44:18;4.63;;;1.63;;
4885;SDS011;2457;51.788;6.136;2024-01-15T01:46:45;3.97;;;1.30;;
4885;SDS011;2457;51.788;6.136;2024-01-15T01:49:12;3.93;;;1.60;;
4885;SDS011;2457;51.788;6.136;2024-01-15T01:51:40;3.10;;;1.23;;
4885;SDS011;2457;51.788;6.136;2024-01-15T01:54:07;4.83;;;1.73;;
4885;SDS011;2457;51.788;6.136;2024-01-15T01:56:37;3.80;;;1.57;;
4885;SDS011;2457;51.788;6.136;2024-01-15T01:59:04;4.17;;;1.70;;
4885;SDS011;2457;51.788;6.136;2024-01-15T02:01:31;3.57;;;1.40;;
4885;SDS011;2457;51.788;6.136;2024-01-15T02:03:59;4.23;;;2.03;;
4885;SDS011;2457;51.788;6.136;2024-01-15T02:06:27;3.07;;;1.40;;
4885;SDS011;2457;51.788;6.136;2024-01-15T02:08:54;4.43;;;1.47;;
4885;SDS011;2457;51.788;6.136;2024-01-15T02:11:22;4.90;;;1.30;;
4885;SDS011;2457;51.788;6.136;2024-01-15T02:13:49;2.90;;;1.20;;
4885;SDS011;2457;51.788;6.136;2024-01-15T02:16:17;7.13;;;1.60;;
4885;SDS011;2457;51.788;6.136;2024-01-15T02:18:45;3.30;;;1.43;;
4885;SDS011;2457;51.788;6.136;2024-01-15T02:21:12;5.10;;;1.67;;
4885;SDS011;2457;51.788;6.136;2024-01-15T02:23:39;5.40;;;1.90;;
4885;SDS011;2457;51.788;6.136;2024-01-15T02:26:06;6.20;;;1.73;;
4885;SDS011;2457;51.788;6.136;2024-01-15T02:28:34;4.13;;;1.50;;
4885;SDS011;2457;51.788;6.136;2024-01-15T02:31:02;5.53;;;1.60;;
4885;SDS011;2457;51.788;6.136;2024-01-15T02:33:29;4.60;;;1.37;;
4885;SDS011;2457;51.788;6.136;2024-01-15T02:35:56;4.90;;;1.80;;
4885;SDS011;2457;51.788;6.136;2024-01-15T02:38:24;4.30;;;1.93;;
4885;SDS011;2457;51.788;6.136;2024-01-15T02:40:51;3.43;;;1.50;;
4885;SDS011;2457;51.788;6.136;2024-01-15T02:43:18;5.17;;;1.60;;
4885;SDS011;2457;51.788;6.136;2024-01-15T02:45:46;4.10;;;1.53;;
4885;SDS011;2457;51.788;6.136;2024-01-15T02:48:13;3.30;;;1.37;;
4885;SDS011;2457;51.788;6.136;2024-01-15T02:50:40;4.10;;;1.60;;
4885;SDS011;2457;51.788;6.136;2024-01-15T02:53:08;5.13;;;1.67;;
4885;SDS011;2457;51.788;6.136;2024-01-15T02:55:35;3.90;;;1.73;;
4885;SDS011;2457;51.788;6.136;2024-01-15T02:58:03;5.33;;;1.57;;
4885;SDS011;2457;51.788;6.136;2024-01-15T03:00:30;6.30;;;1.90;;
4885;SDS011;2457;51.788;6.136;2024-01-15T03:02:57;4.20;;;1.40;;
4885;SDS011;2457;51.788;6.136;2024-01-15T03:05:25;6.00;;;1.73;;
4885;SDS011;2457;51.788;6.136;2024-01-15T03:07:52;3.87;;;1.60;;
4885;SDS011;2457;51.788;6.136;2024-01-15T03:10:19;4.60;;;1.67;;
4885;SDS011;2457;51.788;6.136;2024-01-15T03:12:47;5.80;;;1.80;;
4885;SDS011;2457;51.788;6.136;2024-01-15T03:15:14;5.20;;;1.53;;
4885;SDS011;2457;51.788;6.136;2024-01-15T03:17:41;4.57;;;1.30;;
4885;SDS011;2457;51.788;6.136;2024-01-15T03:20:09;4.90;;;1.37;;
4885;SDS011;2457;51.788;6.136;2024-01-15T03:22:36;4.20;;;1.50;;
4885;SDS011;2457;51.788;6.136;2024-01-15T03:25:04;5.00;;;1.73;;
4885;SDS011;2457;51.788;6.136;2024-01-15T03:27:31;3.50;;;1.60;;
4885;SDS011;2457;51.788;6.136;2024-01-15T03:29:59;5.80;;;1.60;;
4885;SDS011;2457;51.788;6.136;2024-01-15T03:32:26;3.73;;;1.23;;
4885;SDS011;2457;51.788;6.136;2024-01-15T03:34:53;6.50;;;1.87;;
4885;SDS011;2457;51.788;6.136;2024-01-15T03:37:20;4.93;;;1.60;;
4885;SDS011;2457;51.788;6.136;2024-01-15T03:39:48;4.60;;;1.73;;
4885;SDS011;2457;51.788;6.136;2024-01-15T03:42:15;4.93;;;1.97;;
4885;SDS011;2457;51.788;6.136;2024-01-15T03:44:42;3.77;;;1.70;;
4885;SDS011;2457;51.788;6.136;2024-01-15T03:47:09;6.90;;;1.70;;
4885;SDS011;2457;51.788;6.136;2024-01-15T03:49:37;4.60;;;2.40;;
4885;SDS011;2457;51.788;6.136;2024-01-15T03:52:04;4.90;;;2.20;;
4885;SDS011;2457;51.788;6.136;2024-01-15T03:54:31;3.90;;;1.47;;
4885;SDS011;2457;51.788;6.136;2024-01-15T03:56:59;5.23;;;1.77;;
4885;SDS011;2457;51.788;6.136;2024-01-15T03:59:26;7.20;;;1.70;;
4885;SDS011;2457;51.788;6.136;2024-01-15T04:01:53;5.23;;;1.33;;
4885;SDS011;2457;51.788;6.136;2024-01-15T04:04:21;3.80;;;1.63;;
4885;SDS011;2457;51.788;6.136;2024-01-15T04:06:48;7.80;;;1.73;;
4885;SDS011;2457;51.788;6.136;2024-01-15T04:09:15;7.60;;;1.60;;
4885;SDS011;2457;51.788;6.136;2024-01-15T04:11:43;6.30;;;1.70;;
4885;SDS011;2457;51.788;6.136;2024-01-15T04:14:10;4.13;;;1.60;;
4885;SDS011;2457;51.788;6.136;2024-01-15T04:16:37;6.10;;;1.80;;
4885;SDS011;2457;51.788;6.136;2024-01-15T04:19:05;5.57;;;1.73;;
4885;SDS011;2457;51.788;6.136;2024-01-15T04:21:32;6.27;;;1.93;;
4885;SDS011;2457;51.788;6.136;2024-01-15T04:23:59;5.67;;;1.90;;
4885;SDS011;2457;51.788;6.136;2024-01-15T04:26:26;4.60;;;1.67;;
4885;SDS011;2457;51.788;6.136;2024-01-15T04:28:54;4.70;;;1.60;;
4885;SDS011;2457;51.788;6.136;2024-01-15T04:31:22;5.03;;;1.50;;
4885;SDS011;2457;51.788;6.136;2024-01-15T04:33:49;6.43;;;1.90;;
4885;SDS011;2457;51.788;6.136;2024-01-15T04:36:16;5.43;;;2.23;;
4885;SDS011;2457;51.788;6.136;2024-01-15T04:38:44;5.17;;;1.73;;
4885;SDS011;2457;51.788;6.136;2024-01-15T04:41:12;7.00;;;1.70;;
4885;SDS011;2457;51.788;6.136;2024-01-15T04:43:39;5.97;;;1.80;;
4885;SDS011;2457;51.788;6.136;2024-01-15T04:46:06;3.63;;;1.50;;
4885;SDS011;2457;51.788;6.136;2024-01-15T04:48:34;6.13;;;1.53;;
4885;SDS011;2457;51.788;6.136;2024-01-15T04:51:03;6.30;;;1.73;;
4885;SDS011;2457;51.788;6.136;2024-01-15T04:53:30;4.23;;;1.80;;
4885;SDS011;2457;51.788;6.136;2024-01-15T04:55:57;4.40;;;1.60;;
4885;SDS011;2457;51.788;6.136;2024-01-15T04:58:24;5.33;;;1.70;;
4885;SDS011;2457;51.788;6.136;2024-01-15T05:00:53;4.13;;;1.43;;
4885;SDS011;2457;51.788;6.136;2024-01-15T05:03:20;4.80;;;1.60;;
4885;SDS011;2457;51.788;6.136;2024-01-15T05:05:48;6.87;;;1.60;;
4885;SDS011;2457;51.788;6.136;2024-01-15T05:08:15;6.17;;;1.90;;
4885;SDS011;2457;51.788;6.136;2024-01-15T05:10:42;4.23;;;1.50;;
4885;SDS011;2457;51.788;6.136;2024-01-15T05:13:09;6.07;;;1.40;;
4885;SDS011;2457;51.788;6.136;2024-01-15T05:15:37;3.47;;;1.53;;
4885;SDS011;2457;51.788;6.136;2024-01-15T05:18:04;4.43;;;1.70;;
4885;SDS011;2457;51.788;6.136;2024-01-15T05:20:32;4.97;;;1.40;;
4885;SDS011;2457;51.788;6.136;2024-01-15T05:22:59;3.60;;;1.50;;
4885;SDS011;2457;51.788;6.136;2024-01-15T05:25:27;3.83;;;1.60;;
4885;SDS011;2457;51.788;6.136;2024-01-15T05:27:54;5.33;;;1.70;;
4885;SDS011;2457;51.788;6.136;2024-01-15T05:30:21;6.70;;;2.63;;
4885;SDS011;2457;51.788;6.136;2024-01-15T05:32:48;6.43;;;1.97;;
4885;SDS011;2457;51.788;6.136;2024-01-15T05:35:16;5.80;;;2.10;;
4885;SDS011;2457;51.788;6.136;2024-01-15T05:37:43;2.80;;;1.30;;
4885;SDS011;2457;51.788;6.136;2024-01-15T05:40:12;4.70;;;1.37;;
4885;SDS011;2457;51.788;6.136;2024-01-15T05:42:42;3.80;;;1.40;;
4885;SDS011;2457;51.788;6.136;2024-01-15T05:45:09;8.60;;;1.30;;
4885;SDS011;2457;51.788;6.136;2024-01-15T05:47:37;6.23;;;1.60;;
4885;SDS011;2457;51.788;6.136;2024-01-15T05:50:04;3.20;;;1.40;;
4885;SDS011;2457;51.788;6.136;2024-01-15T05:52:32;6.40;;;1.50;;
4885;SDS011;2457;51.788;6.136;2024-01-15T05:55:00;4.50;;;1.47;;
4885;SDS011;2457;51.788;6.136;2024-01-15T05:57:27;4.37;;;1.27;;
4885;SDS011;2457;51.788;6.136;2024-01-15T05:59:54;5.73;;;1.50;;
4885;SDS011;2457;51.788;6.136;2024-01-15T06:02:22;4.00;;;1.40;;
4885;SDS011;2457;51.788;6.136;2024-01-15T06:04:49;3.97;;;1.40;;
4885;SDS011;2457;51.788;6.136;2024-01-15T06:07:16;5.63;;;1.30;;
4885;SDS011;2457;51.788;6.136;2024-01-15T06:09:44;5.07;;;1.50;;
4885;SDS011;2457;51.788;6.136;2024-01-15T06:12:11;2.80;;;1.20;;
4885;SDS011;2457;51.788;6.136;2024-01-15T06:14:38;4.37;;;1.50;;
4885;SDS011;2457;51.788;6.136;2024-01-15T06:17:07;7.37;;;1.50;;
4885;SDS011;2457;51.788;6.136;2024-01-15T06:19:34;4.37;;;1.40;;
4885;SDS011;2457;51.788;6.136;2024-01-15T06:22:02;4.20;;;1.43;;
4885;SDS011;2457;51.788;6.136;2024-01-15T06:24:29;3.83;;;1.40;;
4885;SDS011;2457;51.788;6.136;2024-01-15T06:26:56;3.67;;;1.10;;
4885;SDS011;2457;51.788;6.136;2024-01-15T06:29:24;3.33;;;1.20;;
4885;SDS011;2457;51.788;6.136;2024-01-15T06:31:52;3.67;;;1.30;;
4885;SDS011;2457;51.788;6.136;2024-01-15T06:34:19;4.30;;;1.30;;
4885;SDS011;2457;51.788;6.136;2024-01-15T06:36:46;3.23;;;1.30;;
4885;SDS011;2457;51.788;6.136;2024-01-15T06:39:14;3.90;;;1.43;;
4885;SDS011;2457;51.788;6.136;2024-01-15T06:41:41;2.90;;;1.27;;
4885;SDS011;2457;51.788;6.136;2024-01-15T06:44:10;4.20;;;1.40;;
4885;SDS011;2457;51.788;6.136;2024-01-15T06:46:43;2.60;;;1.10;;
4885;SDS011;2457;51.788;6.136;2024-01-15T06:49:11;4.73;;;1.60;;
4885;SDS011;2457;51.788;6.136;2024-01-15T06:51:38;3.80;;;1.17;;
4885;SDS011;2457;51.788;6.136;2024-01-15T06:54:05;3.27;;;1.30;;
4885;SDS011;2457;51.788;6.136;2024-01-15T06:56:33;3.30;;;1.40;;
4885;SDS011;2457;51.788;6.136;2024-01-15T06:59:00;3.47;;;1.30;;
4885;SDS011;2457;51.788;6.136;2024-01-15T07:01:28;2.83;;;1.20;;
4885;SDS011;2457;51.788;6.136;2024-01-15T07:03:56;4.20;;;1.30;;
4885;SDS011;2457;51.788;6.136;2024-01-15T07:06:23;3.90;;;1.37;;
4885;SDS011;2457;51.788;6.136;2024-01-15T07:08:50;3.87;;;1.40;;
4885;SDS011;2457;51.788;6.136;2024-01-15T07:11:18;3.87;;;1.53;;
4885;SDS011;2457;51.788;6.136;2024-01-15T07:13:45;3.40;;;1.40;;
4885;SDS011;2457;51.788;6.136;2024-01-15T07:16:12;4.50;;;1.40;;
4885;SDS011;2457;51.788;6.136;2024-01-15T07:18:39;4.13;;;1.40;;
4885;SDS011;2457;51.788;6.136;2024-01-15T07:21:07;3.10;;;1.40;;
4885;SDS011;2457;51.788;6.136;2024-01-15T07:23:34;3.17;;;1.43;;
4885;SDS011;2457;51.788;6.136;2024-01-15T07:26:01;3.00;;;1.50;;
4885;SDS011;2457;51.788;6.136;2024-01-15T07:28:29;3.47;;;1.53;;
4885;SDS011;2457;51.788;6.136;2024-01-15T07:30:56;2.73;;;1.20;;
4885;SDS011;2457;51.788;6.136;2024-01-15T07:33:24;2.70;;;1.13;;
4885;SDS011;2457;51.788;6.136;2024-01-15T07:35:52;3.77;;;1.40;;
4885;SDS011;2457;51.788;6.136;2024-01-15T07:38:19;3.03;;;1.50;;
4885;SDS011;2457;51.788;6.136;2024-01-15T07:40:47;3.50;;;1.20;;
4885;SDS011;2457;51.788;6.136;2024-01-15T07:43:15;4.20;;;1.40;;
4885;SDS011;2457;51.788;6.136;2024-01-15T07:45:42;2.90;;;1.50;;
4885;SDS011;2457;51.788;6.136;2024-01-15T07:48:11;3.17;;;1.37;;
4885;SDS011;2457;51.788;6.136;2024-01-15T07:50:38;3.23;;;1.40;;
4885;SDS011;2457;51.788;6.136;2024-01-15T07:53:06;3.20;;;1.50;;
4885;SDS011;2457;51.788;6.136;2024-01-15T07:55:33;2.70;;;1.20;;
4885;SDS011;2457;51.788;6.136;2024-01-15T07:58:00;3.63;;;1.43;;
4885;SDS011;2457;51.788;6.136;2024-01-15T08:00:28;2.60;;;1.20;;
4885;SDS011;2457;51.788;6.136;2024-01-15T08:02:55;2.67;;;1.10;;
4885;SDS011;2457;51.788;6.136;2024-01-15T08:05:22;2.80;;;1.10;;
4885;SDS011;2457;51.788;6.136;2024-01-15T08:07:50;2.80;;;1.10;;
4885;SDS011;2457;51.788;6.136;2024-01-15T08:10:17;2.70;;;1.10;;
4885;SDS011;2457;51.788;6.136;2024-01-15T08:12:44;3.10;;;1.17;;
4885;SDS011;2457;51.788;6.136;2024-01-15T08:15:12;2.70;;;1.10;;
4885;SDS011;2457;51.788;6.136;2024-01-15T08:17:39;2.67;;;1.10;;
4885;SDS011;2457;51.788;6.136;2024-01-15T08:20:06;2.83;;;1.17;;
4885;SDS011;2457;51.788;6.136;2024-01-15T08:22:34;2.60;;;1.00;;
4885;SDS011;2457;51.788;6.136;2024-01-15T08:25:01;2.70;;;1.10;;
4885;SDS011;2457;51.788;6.136;2024-01-15T08:27:29;2.90;;;1.10;;
4885;SDS011;2457;51.788;6.136;2024-01-15T08:29:57;2.70;;;1.00;;
4885;SDS011;2457;51.788;6.136;2024-01-15T08:32:24;3.00;;;1.20;;
4885;SDS011;2457;51.788;6.136;2024-01-15T08:34:51;2.50;;;1.10;;
4885;SDS011;2457;51.788;6.136;2024-01-15T08:37:19;2.50;;;1.10;;
4885;SDS011;2457;51.788;6.136;2024-01-15T08:39:46;2.80;;;1.30;;
4885;SDS011;2457;51.788;6.136;2024-01-15T08:42:13;3.43;;;1.30;;
4885;SDS011;2457;51.788;6.136;2024-01-15T08:44:40;2.80;;;1.20;;
4885;SDS011;2457;51.788;6.136;2024-01-15T08:47:09;2.80;;;1.10;;
4885;SDS011;2457;51.788;6.136;2024-01-15T08:49:37;2.90;;;1.13;;
4885;SDS011;2457;51.788;6.136;2024-01-15T08:52:04;2.60;;;1.20;;
4885;SDS011;2457;51.788;6.136;2024-01-15T08:54:31;3.30;;;1.20;;
4885;SDS011;2457;51.788;6.136;2024-01-15T08:56:58;2.60;;;1.10;;
4885;SDS011;2457;51.788;6.136;2024-01-15T08:59:26;2.90;;;1.10;;
4885;SDS011;2457;51.788;6.136;2024-01-15T09:01:53;3.20;;;1.20;;
4885;SDS011;2457;51.788;6.136;2024-01-15T09:04:22;2.83;;;1.20;;
4885;SDS011;2457;51.788;6.136;2024-01-15T09:06:50;3.47;;;1.40;;
4885;SDS011;2457;51.788;6.136;2024-01-15T09:09:17;4.20;;;1.33;;
4885;SDS011;2457;51.788;6.136;2024-01-15T09:11:44;3.50;;;1.63;;
4885;SDS011;2457;51.788;6.136;2024-01-15T09:14:12;3.73;;;1.10;;
4885;SDS011;2457;51.788;6.136;2024-01-15T09:16:39;4.27;;;1.57;;
4885;SDS011;2457;51.788;6.136;2024-01-15T09:19:07;3.00;;;1.60;;
4885;SDS011;2457;51.788;6.136;2024-01-15T09:21:34;2.80;;;1.30;;
4885;SDS011;2457;51.788;6.136;2024-01-15T09:24:01;3.27;;;1.60;;
4885;SDS011;2457;51.788;6.136;2024-01-15T09:26:28;3.43;;;1.40;;
4885;SDS011;2457;51.788;6.136;2024-01-15T09:28:56;3.27;;;1.60;;
4885;SDS011;2457;51.788;6.136;2024-01-15T09:31:24;3.50;;;1.40;;
4885;SDS011;2457;51.788;6.136;2024-01-15T09:33:51;4.30;;;1.40;;
4885;SDS011;2457;51.788;6.136;2024-01-15T09:36:20;3.42;;;1.35;;
4885;SDS011;2457;51.788;6.136;2024-01-15T09:38:47;2.90;;;1.30;;
4885;SDS011;2457;51.788;6.136;2024-01-15T09:41:14;5.23;;;1.70;;
4885;SDS011;2457;51.788;6.136;2024-01-15T09:43:42;4.50;;;1.77;;
4885;SDS011;2457;51.788;6.136;2024-01-15T09:46:10;3.00;;;1.33;;
4885;SDS011;2457;51.788;6.136;2024-01-15T09:48:38;4.00;;;1.67;;
4885;SDS011;2457;51.788;6.136;2024-01-15T09:51:05;3.60;;;1.27;;
4885;SDS011;2457;51.788;6.136;2024-01-15T09:53:34;3.30;;;1.40;;
4885;SDS011;2457;51.788;6.136;2024-01-15T09:56:04;3.00;;;1.30;;
4885;SDS011;2457;51.788;6.136;2024-01-15T09:58:32;4.07;;;1.27;;
4885;SDS011;2457;51.788;6.136;2024-01-15T10:01:00;4.37;;;1.70;;
4885;SDS011;2457;51.788;6.136;2024-01-15T10:03:29;4.30;;;1.40;;
4885;SDS011;2457;51.788;6.136;2024-01-15T10:05:58;3.23;;;1.20;;
4885;SDS011;2457;51.788;6.136;2024-01-15T10:08:26;3.83;;;1.40;;
4885;SDS011;2457;51.788;6.136;2024-01-15T10:10:53;2.93;;;1.10;;
4885;SDS011;2457;51.788;6.136;2024-01-15T10:13:21;2.73;;;1.17;;
4885;SDS011;2457;51.788;6.136;2024-01-15T10:15:49;3.43;;;1.13;;
4885;SDS011;2457;51.788;6.136;2024-01-15T10:18:16;3.50;;;1.30;;
4885;SDS011;2457;51.788;6.136;2024-01-15T10:20:44;6.17;;;1.73;;
4885;SDS011;2457;51.788;6.136;2024-01-15T10:23:11;4.63;;;1.40;;
4885;SDS011;2457;51.788;6.136;2024-01-15T10:25:39;2.90;;;1.20;;
4885;SDS011;2457;51.788;6.136;2024-01-15T10:28:07;2.73;;;1.20;;
4885;SDS011;2457;51.788;6.136;2024-01-15T10:30:36;3.20;;;1.30;;
4885;SDS011;2457;51.788;6.136;2024-01-15T10:33:03;3.70;;;1.30;;
4885;SDS011;2457;51.788;6.136;2024-01-15T10:35:31;3.27;;;1.37;;
4885;SDS011;2457;51.788;6.136;2024-01-15T10:37:59;3.33;;;1.30;;
4885;SDS011;2457;51.788;6.136;2024-01-15T10:40:28;3.00;;;1.20;;
4885;SDS011;2457;51.788;6.136;2024-01-15T10:42:56;3.77;;;1.53;;
4885;SDS011;2457;51.788;6.136;2024-01-15T10:45:23;3.20;;;1.50;;
4885;SDS011;2457;51.788;6.136;2024-01-15T10:47:51;3.40;;;1.30;;
4885;SDS011;2457;51.788;6.136;2024-01-15T10:50:18;3.43;;;1.43;;
4885;SDS011;2457;51.788;6.136;2024-01-15T10:52:46;3.83;;;1.50;;
4885;SDS011;2457;51.788;6.136;2024-01-15T10:55:14;4.63;;;1.47;;
4885;SDS011;2457;51.788;6.136;2024-01-15T10:57:41;3.80;;;1.57;;
4885;SDS011;2457;51.788;6.136;2024-01-15T11:00:10;7.80;;;1.53;;
4885;SDS011;2457;51.788;6.136;2024-01-15T11:02:39;3.00;;;1.30;;
4885;SDS011;2457;51.788;6.136;2024-01-15T11:05:07;3.00;;;1.63;;
4885;SDS011;2457;51.788;6.136;2024-01-15T11:07:36;3.97;;;1.80;;
4885;SDS011;2457;51.788;6.136;2024-01-15T11:10:05;3.50;;;1.70;;
4885;SDS011;2457;51.788;6.136;2024-01-15T11:12:34;3.20;;;1.60;;
4885;SDS011;2457;51.788;6.136;2024-01-15T11:15:03;5.20;;;1.63;;
4885;SDS011;2457;51.788;6.136;2024-01-15T11:20:20;5.37;;;1.70;;
4885;SDS011;2457;51.788;6.136;2024-01-15T11:22:47;3.50;;;1.73;;
4885;SDS011;2457;51.788;6.136;2024-01-15T11:25:16;6.07;;;1.87;;
4885;SDS011;2457;51.788;6.136;2024-01-15T11:27:44;5.40;;;1.90;;
4885;SDS011;2457;51.788;6.136;2024-01-15T11:30:14;3.00;;;1.33;;
4885;SDS011;2457;51.788;6.136;2024-01-15T11:32:41;4.97;;;1.40;;
4885;SDS011;2457;51.788;6.136;2024-01-15T11:35:09;3.13;;;1.37;;
4885;SDS011;2457;51.788;6.136;2024-01-15T11:40:21;4.13;;;1.50;;
4885;SDS011;2457;51.788;6.136;2024-01-15T11:42:49;4.33;;;1.30;;
4885;SDS011;2457;51.788;6.136;2024-01-15T11:45:19;5.00;;;1.47;;
4885;SDS011;2457;51.788;6.136;2024-01-15T11:50:18;3.90;;;1.60;;
4885;SDS011;2457;51.788;6.136;2024-01-15T11:52:49;3.87;;;2.00;;
4885;SDS011;2457;51.788;6.136;2024-01-15T11:55:27;7.17;;;2.10;;
4885;SDS011;2457;51.788;6.136;2024-01-15T11:57:57;4.47;;;2.00;;
4885;SDS011;2457;51.788;6.136;2024-01-15T12:00:26;4.13;;;2.00;;
4885;SDS011;2457;51.788;6.136;2024-01-15T12:02:54;3.37;;;1.97;;
4885;SDS011;2457;51.788;6.136;2024-01-15T12:05:23;6.03;;;2.00;;
4885;SDS011;2457;51.788;6.136;2024-01-15T12:07:50;6.40;;;2.30;;
4885;SDS011;2457;51.788;6.136;2024-01-15T12:10:18;4.60;;;1.87;;
4885;SDS011;2457;51.788;6.136;2024-01-15T12:13:04;6.27;;;1.93;;
4885;SDS011;2457;51.788;6.136;2024-01-15T12:15:27;5.20;;;2.33;;
4885;SDS011;2457;51.788;6.136;2024-01-15T12:17:56;5.27;;;1.90;;
4885;SDS011;2457;51.788;6.136;2024-01-15T12:20:26;5.10;;;1.63;;
4885;SDS011;2457;51.788;6.136;2024-01-15T12:22:54;3.67;;;1.83;;
4885;SDS011;2457;51.788;6.136;2024-01-15T12:25:24;4.77;;;1.90;;
4885;SDS011;2457;51.788;6.136;2024-01-15T12:27:53;4.80;;;2.53;;
4885;SDS011;2457;51.788;6.136;2024-01-15T12:30:20;3.20;;;1.33;;
4885;SDS011;2457;51.788;6.136;2024-01-15T12:32:48;3.10;;;1.17;;
4885;SDS011;2457;51.788;6.136;2024-01-15T12:35:15;3.20;;;1.20;;
4885;SDS011;2457;51.788;6.136;2024-01-15T12:37:43;4.10;;;1.40;;
4885;SDS011;2457;51.788;6.136;2024-01-15T12:40:12;6.30;;;1.40;;
4885;SDS011;2457;51.788;6.136;2024-01-15T12:42:40;5.23;;;1.30;;
4885;SDS011;2457;51.788;6.136;2024-01-15T12:45:11;4.53;;;1.60;;
4885;SDS011;2457;51.788;6.136;2024-01-15T12:47:43;4.50;;;1.30;;
4885;SDS011;2457;51.788;6.136;2024-01-15T12:50:11;5.60;;;1.83;;
4885;SDS011;2457;51.788;6.136;2024-01-15T12:52:42;4.87;;;1.60;;
4885;SDS011;2457;51.788;6.136;2024-01-15T12:55:08;5.50;;;1.27;;
4885;SDS011;2457;51.788;6.136;2024-01-15T12:57:35;3.93;;;1.50;;
4885;SDS011;2457;51.788;6.136;2024-01-15T13:00:03;3.43;;;1.20;;
4885;SDS011;2457;51.788;6.136;2024-01-15T13:02:35;3.90;;;1.17;;
4885;SDS011;2457;51.788;6.136;2024-01-15T13:05:03;3.80;;;1.40;;
4885;SDS011;2457;51.788;6.136;2024-01-15T13:07:31;3.03;;;1.37;;
4885;SDS011;2457;51.788;6.136;2024-01-15T13:09:59;3.80;;;1.37;;
4885;SDS011;2457;51.788;6.136;2024-01-15T13:12:26;3.80;;;1.20;;
4885;SDS011;2457;51.788;6.136;2024-01-15T13:14:53;3.40;;;1.23;;
4885;SDS011;2457;51.788;6.136;2024-01-15T13:17:20;3.90;;;1.20;;
4885;SDS011;2457;51.788;6.136;2024-01-15T13:19:48;4.47;;;1.17;;
4885;SDS011;2457;51.788;6.136;2024-01-15T13:22:15;3.53;;;1.37;;
4885;SDS011;2457;51.788;6.136;2024-01-15T13:24:42;4.30;;;1.70;;
4885;SDS011;2457;51.788;6.136;2024-01-15T13:27:10;4.50;;;1.17;;
4885;SDS011;2457;51.788;6.136;2024-01-15T13:29:38;4.40;;;1.50;;
4885;SDS011;2457;51.788;6.136;2024-01-15T13:32:05;4.20;;;1.60;;
4885;SDS011;2457;51.788;6.136;2024-01-15T13:34:32;4.57;;;1.40;;
4885;SDS011;2457;51.788;6.136;2024-01-15T13:37:00;5.07;;;1.60;;
4885;SDS011;2457;51.788;6.136;2024-01-15T13:39:27;3.40;;;1.30;;
4885;SDS011;2457;51.788;6.136;2024-01-15T13:41:56;3.23;;;1.27;;
4885;SDS011;2457;51.788;6.136;2024-01-15T13:44:23;3.97;;;1.30;;
4885;SDS011;2457;51.788;6.136;2024-01-15T13:46:51;3.57;;;1.40;;
4885;SDS011;2457;51.788;6.136;2024-01-15T13:49:18;3.70;;;1.37;;
4885;SDS011;2457;51.788;6.136;2024-01-15T13:51:46;5.87;;;1.20;;
4885;SDS011;2457;51.788;6.136;2024-01-15T13:54:13;3.93;;;1.30;;
4885;SDS011;2457;51.788;6.136;2024-01-15T13:56:40;4.17;;;1.70;;
4885;SDS011;2457;51.788;6.136;2024-01-15T13:59:08;4.10;;;1.40;;
4885;SDS011;2457;51.788;6.136;2024-01-15T14:01:35;3.50;;;1.20;;
4885;SDS011;2457;51.788;6.136;2024-01-15T14:04:03;4.57;;;1.40;;
4885;SDS011;2457;51.788;6.136;2024-01-15T14:06:30;3.27;;;1.30;;
4885;SDS011;2457;51.788;6.136;2024-01-15T14:08:57;3.77;;;1.37;;
4885;SDS011;2457;51.788;6.136;2024-01-15T14:11:24;3.27;;;1.30;;
4885;SDS011;2457;51.788;6.136;2024-01-15T14:13:52;5.10;;;1.43;;
4885;SDS011;2457;51.788;6.136;2024-01-15T14:16:19;5.47;;;1.33;;
4885;SDS011;2457;51.788;6.136;2024-01-15T14:18:46;3.30;;;1.23;;
4885;SDS011;2457;51.788;6.136;2024-01-15T14:21:14;3.70;;;1.40;;
4885;SDS011;2457;51.788;6.136;2024-01-15T14:23:41;6.00;;;1.53;;
4885;SDS011;2457;51.788;6.136;2024-01-15T14:26:09;4.70;;;1.40;;
4885;SDS011;2457;51.788;6.136;2024-01-15T14:28:36;6.03;;;1.70;;
4885;SDS011;2457;51.788;6.136;2024-01-15T14:31:04;2.83;;;1.20;;
4885;SDS011;2457;51.788;6.136;2024-01-15T14:33:32;3.83;;;1.40;;
4885;SDS011;2457;51.788;6.136;2024-01-15T14:35:59;5.20;;;1.33;;
4885;SDS011;2457;51.788;6.136;2024-01-15T14:38:26;5.07;;;1.20;;
4885;SDS011;2457;51.788;6.136;2024-01-15T14:40:53;4.23;;;1.30;;
4885;SDS011;2457;51.788;6.136;2024-01-15T14:43:21;3.50;;;1.40;;
4885;SDS011;2457;51.788;6.136;2024-01-15T14:45:48;4.60;;;1.50;;
4885;SDS011;2457;51.788;6.136;2024-01-15T14:48:15;3.67;;;1.47;;
4885;SDS011;2457;51.788;6.136;2024-01-15T14:50:42;3.50;;;1.30;;
4885;SDS011;2457;51.788;6.136;2024-01-15T14:53:10;3.47;;;1.33;;
4885;SDS011;2457;51.788;6.136;2024-01-15T14:55:37;3.17;;;1.20;;
4885;SDS011;2457;51.788;6.136;2024-01-15T14:58:04;4.90;;;1.30;;
4885;SDS011;2457;51.788;6.136;2024-01-15T15:00:31;5.03;;;1.23;;
4885;SDS011;2457;51.788;6.136;2024-01-15T15:02:59;5.27;;;1.20;;
4885;SDS011;2457;51.788;6.136;2024-01-15T15:05:26;4.70;;;1.50;;
4885;SDS011;2457;51.788;6.136;2024-01-15T15:07:53;3.10;;;1.10;;
4885;SDS011;2457;51.788;6.136;2024-01-15T15:10:20;3.30;;;1.33;;
4885;SDS011;2457;51.788;6.136;2024-01-15T15:12:48;6.43;;;1.80;;
4885;SDS011;2457;51.788;6.136;2024-01-15T15:15:15;5.67;;;1.47;;
4885;SDS011;2457;51.788;6.136;2024-01-15T15:17:44;3.50;;;1.40;;
4885;SDS011;2457;51.788;6.136;2024-01-15T15:20:11;3.90;;;1.33;;
4885;SDS011;2457;51.788;6.136;2024-01-15T15:22:38;5.17;;;1.70;;
4885;SDS011;2457;51.788;6.136;2024-01-15T15:25:06;6.37;;;1.83;;